sensor_id;sensor_type;location;lat;lon;timestamp;P1;durP1;ratioP1;P2;durP2;ratioP2
4186;SDS011;2107;52.306;10.484;2023-03-23T00:00:58;1.70;;;1.70;;
4186;SDS011;2107;52.306;10.484;2023-03-23T00:03:25;1.90;;;1.90;;
4186;SDS011;2107;52.306;10.484;2023-03-23T00:05:54;1.97;;;1.97;;
4186;SDS011;2107;52.306;10.484;2023-03-23T00:08:24;2.03;;;2.03;;
4186;SDS011;2107;52.306;10.484;2023-03-23T00:10:53;1.50;;;1.50;;
4186;SDS011;2107;52.306;10.484;2023-03-23T00:13:23;0.80;;;0.80;;
4186;SDS011;2107;52.306;10.484;2023-03-23T00:15:51;1.10;;;1.10;;
4186;SDS011;2107;52.306;10.484;2023-03-23T00:18:18;0.90;;;0.90;;
4186;SDS011;2107;52.306;10.484;2023-03-23T00:20:47;0.80;;;0.80;;
4186;SDS011;2107;52.306;10.484;2023-03-23T00:23:16;0.80;;;0.80;;
4186;SDS011;2107;52.306;10.484;2023-03-23T00:25:45;0.60;;;0.60;;
4186;SDS011;2107;52.306;10.484;2023-03-23T00:28:14;1.00;;;1.00;;
4186;SDS011;2107;52.306;10.484;2023-03-23T00:30:42;0.90;;;0.90;;
4186;SDS011;2107;52.306;10.484;2023-03-23T00:33:09;0.97;;;0.97;;
4186;SDS011;2107;52.306;10.484;2023-03-23T00:35:38;1.00;;;1.00;;
4186;SDS011;2107;52.306;10.484;2023-03-23T00:38:06;0.80;;;0.80;;
4186;SDS011;2107;52.306;10.484;2023-03-23T00:40:33;0.80;;;0.80;;
4186;SDS011;2107;52.306;10.484;2023-03-23T00:43:01;0.70;;;0.70;;
4186;SDS011;2107;52.306;10.484;2023-03-23T00:45:31;0.80;;;0.80;;
4186;SDS011;2107;52.306;10.484;2023-03-23T00:47:59;0.70;;;0.70;;
4186;SDS011;2107;52.306;10.484;2023-03-23T00:50:27;0.90;;;0.90;;
4186;SDS011;2107;52.306;10.484;2023-03-23T00:52:54;1.70;;;1.70;;
4186;SDS011;2107;52.306;10.484;2023-03-23T00:55:22;2.40;;;2.40;;
4186;SDS011;2107;52.306;10.484;2023-03-23T00:57:49;2.37;;;2.37;;
4186;SDS011;2107;52.306;10.484;2023-03-23T01:00:16;2.30;;;2.30;;
4186;SDS011;2107;52.306;10.484;2023-03-23T01:02:45;2.20;;;2.20;;
4186;SDS011;2107;52.306;10.484;2023-03-23T01:05:12;2.40;;;2.40;;
4186;SDS011;2107;52.306;10.484;2023-03-23T01:07:40;2.47;;;2.47;;
4186;SDS011;2107;52.306;10.484;2023-03-23T01:10:09;2.60;;;2.60;;
4186;SDS011;2107;52.306;10.484;2023-03-23T01:12:41;2.83;;;2.83;;
4186;SDS011;2107;52.306;10.484;2023-03-23T01:15:08;2.80;;;2.80;;
4186;SDS011;2107;52.306;10.484;2023-03-23T01:17:39;2.80;;;2.80;;
4186;SDS011;2107;52.306;10.484;2023-03-23T01:20:08;3.30;;;3.30;;
4186;SDS011;2107;52.306;10.484;2023-03-23T01:22:35;3.50;;;3.50;;
4186;SDS011;2107;52.306;10.484;2023-03-23T01:25:02;3.40;;;3.40;;
4186;SDS011;2107;52.306;10.484;2023-03-23T01:27:30;3.60;;;3.60;;
4186;SDS011;2107;52.306;10.484;2023-03-23T01:29:57;3.10;;;3.10;;
4186;SDS011;2107;52.306;10.484;2023-03-23T01:32:24;2.90;;;2.90;;
4186;SDS011;2107;52.306;10.484;2023-03-23T01:34:51;2.90;;;2.90;;
4186;SDS011;2107;52.306;10.484;2023-03-23T01:37:19;2.80;;;2.80;;
4186;SDS011;2107;52.306;10.484;2023-03-23T01:39:51;2.83;;;2.83;;
4186;SDS011;2107;52.306;10.484;2023-03-23T01:42:18;3.40;;;3.40;;
4186;SDS011;2107;52.306;10.484;2023-03-23T01:47:52;3.00;;;3.00;;
4186;SDS011;2107;52.306;10.484;2023-03-23T01:50:23;4.00;;;4.00;;
4186;SDS011;2107;52.306;10.484;2023-03-23T01:52:54;3.20;;;3.20;;
4186;SDS011;2107;52.306;10.484;2023-03-23T01:55:23;2.40;;;2.40;;
4186;SDS011;2107;52.306;10.484;2023-03-23T01:57:52;2.90;;;2.90;;
4186;SDS011;2107;52.306;10.484;2023-03-23T02:00:21;2.87;;;2.87;;
4186;SDS011;2107;52.306;10.484;2023-03-23T02:02:49;2.47;;;2.47;;
4186;SDS011;2107;52.306;10.484;2023-03-23T02:05:19;3.30;;;3.30;;
4186;SDS011;2107;52.306;10.484;2023-03-23T02:07:50;3.00;;;3.00;;
4186;SDS011;2107;52.306;10.484;2023-03-23T02:10:19;3.43;;;3.43;;
4186;SDS011;2107;52.306;10.484;2023-03-23T02:12:46;2.73;;;2.73;;
4186;SDS011;2107;52.306;10.484;2023-03-23T02:15:13;3.10;;;3.10;;
4186;SDS011;2107;52.306;10.484;2023-03-23T02:17:41;2.90;;;2.90;;
4186;SDS011;2107;52.306;10.484;2023-03-23T02:20:23;3.53;;;3.53;;
4186;SDS011;2107;52.306;10.484;2023-03-23T02:26:11;2.70;;;2.70;;
4186;SDS011;2107;52.306;10.484;2023-03-23T02:28:56;2.90;;;2.90;;
4186;SDS011;2107;52.306;10.484;2023-03-23T02:31:44;2.30;;;2.30;;
4186;SDS011;2107;52.306;10.484;2023-03-23T02:34:21;2.37;;;2.37;;
4186;SDS011;2107;52.306;10.484;2023-03-23T02:36:54;2.67;;;2.67;;
4186;SDS011;2107;52.306;10.484;2023-03-23T02:39:26;2.90;;;2.90;;
4186;SDS011;2107;52.306;10.484;2023-03-23T02:41:58;3.30;;;3.30;;
4186;SDS011;2107;52.306;10.484;2023-03-23T02:44:28;3.20;;;3.20;;
4186;SDS011;2107;52.306;10.484;2023-03-23T02:46:57;3.60;;;3.60;;
4186;SDS011;2107;52.306;10.484;2023-03-23T02:49:28;3.50;;;3.50;;
4186;SDS011;2107;52.306;10.484;2023-03-23T02:51:58;3.40;;;3.40;;
4186;SDS011;2107;52.306;10.484;2023-03-23T02:54:28;2.77;;;2.77;;
4186;SDS011;2107;52.306;10.484;2023-03-23T02:56:56;3.00;;;3.00;;
4186;SDS011;2107;52.306;10.484;2023-03-23T02:59:24;2.40;;;2.40;;
4186;SDS011;2107;52.306;10.484;2023-03-23T03:01:55;3.20;;;3.20;;
4186;SDS011;2107;52.306;10.484;2023-03-23T03:04:30;2.53;;;2.53;;
4186;SDS011;2107;52.306;10.484;2023-03-23T03:09:56;2.60;;;2.60;;
4186;SDS011;2107;52.306;10.484;2023-03-23T03:12:30;3.10;;;3.10;;
4186;SDS011;2107;52.306;10.484;2023-03-23T03:15:05;2.80;;;2.80;;
4186;SDS011;2107;52.306;10.484;2023-03-23T03:17:38;2.80;;;2.80;;
4186;SDS011;2107;52.306;10.484;2023-03-23T03:20:10;2.73;;;2.73;;
4186;SDS011;2107;52.306;10.484;2023-03-23T03:22:39;2.50;;;2.50;;
4186;SDS011;2107;52.306;10.484;2023-03-23T03:25:09;2.40;;;2.40;;
4186;SDS011;2107;52.306;10.484;2023-03-23T03:27:38;2.30;;;2.30;;
4186;SDS011;2107;52.306;10.484;2023-03-23T03:30:08;2.43;;;2.43;;
4186;SDS011;2107;52.306;10.484;2023-03-23T03:32:39;2.87;;;2.87;;
4186;SDS011;2107;52.306;10.484;2023-03-23T03:35:13;3.20;;;3.20;;
4186;SDS011;2107;52.306;10.484;2023-03-23T03:37:40;3.40;;;3.40;;
4186;SDS011;2107;52.306;10.484;2023-03-23T03:40:09;3.10;;;3.10;;
4186;SDS011;2107;52.306;10.484;2023-03-23T03:42:37;2.83;;;2.83;;
4186;SDS011;2107;52.306;10.484;2023-03-23T03:45:05;2.87;;;2.87;;
4186;SDS011;2107;52.306;10.484;2023-03-23T03:47:33;3.00;;;3.00;;
4186;SDS011;2107;52.306;10.484;2023-03-23T03:50:00;2.40;;;2.40;;
4186;SDS011;2107;52.306;10.484;2023-03-23T03:52:28;2.00;;;2.00;;
4186;SDS011;2107;52.306;10.484;2023-03-23T03:54:55;1.80;;;1.80;;
4186;SDS011;2107;52.306;10.484;2023-03-23T03:57:22;1.50;;;1.50;;
4186;SDS011;2107;52.306;10.484;2023-03-23T03:59:49;2.00;;;2.00;;
4186;SDS011;2107;52.306;10.484;2023-03-23T04:02:17;1.60;;;1.60;;
4186;SDS011;2107;52.306;10.484;2023-03-23T04:04:46;2.17;;;2.17;;
4186;SDS011;2107;52.306;10.484;2023-03-23T04:07:13;1.80;;;1.80;;
4186;SDS011;2107;52.306;10.484;2023-03-23T04:09:42;1.50;;;1.50;;
4186;SDS011;2107;52.306;10.484;2023-03-23T04:12:11;1.50;;;1.50;;
4186;SDS011;2107;52.306;10.484;2023-03-23T04:14:38;1.47;;;1.47;;
4186;SDS011;2107;52.306;10.484;2023-03-23T04:17:05;1.80;;;1.80;;
4186;SDS011;2107;52.306;10.484;2023-03-23T04:19:34;1.80;;;1.80;;
4186;SDS011;2107;52.306;10.484;2023-03-23T04:22:02;1.80;;;1.80;;
4186;SDS011;2107;52.306;10.484;2023-03-23T04:24:29;1.60;;;1.60;;
4186;SDS011;2107;52.306;10.484;2023-03-23T04:26:59;1.30;;;1.30;;
4186;SDS011;2107;52.306;10.484;2023-03-23T04:29:26;1.40;;;1.40;;
4186;SDS011;2107;52.306;10.484;2023-03-23T04:31:53;1.10;;;1.10;;
4186;SDS011;2107;52.306;10.484;2023-03-23T04:34:20;1.00;;;1.00;;
4186;SDS011;2107;52.306;10.484;2023-03-23T04:36:48;1.10;;;1.10;;
4186;SDS011;2107;52.306;10.484;2023-03-23T04:39:15;1.10;;;1.10;;
4186;SDS011;2107;52.306;10.484;2023-03-23T04:41:42;1.30;;;1.30;;
4186;SDS011;2107;52.306;10.484;2023-03-23T04:44:12;0.80;;;0.80;;
4186;SDS011;2107;52.306;10.484;2023-03-23T04:46:44;0.80;;;0.80;;
4186;SDS011;2107;52.306;10.484;2023-03-23T04:49:15;1.00;;;1.00;;
4186;SDS011;2107;52.306;10.484;2023-03-23T04:51:46;0.90;;;0.90;;
4186;SDS011;2107;52.306;10.484;2023-03-23T04:54:15;1.20;;;1.20;;
4186;SDS011;2107;52.306;10.484;2023-03-23T04:56:42;1.60;;;1.60;;
4186;SDS011;2107;52.306;10.484;2023-03-23T04:59:09;1.30;;;1.30;;
4186;SDS011;2107;52.306;10.484;2023-03-23T05:01:38;1.50;;;1.50;;
4186;SDS011;2107;52.306;10.484;2023-03-23T05:04:10;1.13;;;1.13;;
4186;SDS011;2107;52.306;10.484;2023-03-23T05:06:38;1.23;;;1.23;;
4186;SDS011;2107;52.306;10.484;2023-03-23T05:09:06;1.20;;;1.20;;
4186;SDS011;2107;52.306;10.484;2023-03-23T05:11:32;1.00;;;1.00;;
4186;SDS011;2107;52.306;10.484;2023-03-23T05:13:59;1.10;;;1.10;;
4186;SDS011;2107;52.306;10.484;2023-03-23T05:16:28;1.00;;;1.00;;
4186;SDS011;2107;52.306;10.484;2023-03-23T05:18:55;1.30;;;1.30;;
4186;SDS011;2107;52.306;10.484;2023-03-23T05:21:23;1.80;;;1.80;;
4186;SDS011;2107;52.306;10.484;2023-03-23T05:23:51;1.73;;;1.73;;
4186;SDS011;2107;52.306;10.484;2023-03-23T05:26:19;1.70;;;1.70;;
4186;SDS011;2107;52.306;10.484;2023-03-23T05:28:46;1.87;;;1.87;;
4186;SDS011;2107;52.306;10.484;2023-03-23T05:31:17;1.70;;;1.70;;
4186;SDS011;2107;52.306;10.484;2023-03-23T05:33:46;2.10;;;2.10;;
4186;SDS011;2107;52.306;10.484;2023-03-23T05:36:12;1.70;;;1.70;;
4186;SDS011;2107;52.306;10.484;2023-03-23T05:38:39;1.70;;;1.70;;
4186;SDS011;2107;52.306;10.484;2023-03-23T05:41:10;2.00;;;2.00;;
4186;SDS011;2107;52.306;10.484;2023-03-23T05:43:37;1.60;;;1.60;;
4186;SDS011;2107;52.306;10.484;2023-03-23T05:46:04;1.50;;;1.50;;
4186;SDS011;2107;52.306;10.484;2023-03-23T05:48:31;1.60;;;1.60;;
4186;SDS011;2107;52.306;10.484;2023-03-23T05:51:00;1.70;;;1.70;;
4186;SDS011;2107;52.306;10.484;2023-03-23T05:53:27;1.20;;;1.20;;
4186;SDS011;2107;52.306;10.484;2023-03-23T05:55:57;0.90;;;0.90;;
4186;SDS011;2107;52.306;10.484;2023-03-23T05:58:26;0.70;;;0.70;;
4186;SDS011;2107;52.306;10.484;2023-03-23T06:00:53;0.80;;;0.80;;
4186;SDS011;2107;52.306;10.484;2023-03-23T06:03:20;0.90;;;0.90;;
4186;SDS011;2107;52.306;10.484;2023-03-23T06:05:47;0.40;;;0.40;;
4186;SDS011;2107;52.306;10.484;2023-03-23T06:08:16;0.40;;;0.40;;
4186;SDS011;2107;52.306;10.484;2023-03-23T06:10:43;0.53;;;0.53;;
4186;SDS011;2107;52.306;10.484;2023-03-23T06:13:10;0.40;;;0.40;;
4186;SDS011;2107;52.306;10.484;2023-03-23T06:15:37;0.50;;;0.50;;
4186;SDS011;2107;52.306;10.484;2023-03-23T06:18:04;0.60;;;0.60;;
4186;SDS011;2107;52.306;10.484;2023-03-23T06:20:31;0.50;;;0.50;;
4186;SDS011;2107;52.306;10.484;2023-03-23T06:23:00;0.40;;;0.40;;
4186;SDS011;2107;52.306;10.484;2023-03-23T06:25:29;0.50;;;0.50;;
4186;SDS011;2107;52.306;10.484;2023-03-23T06:27:56;0.40;;;0.40;;
4186;SDS011;2107;52.306;10.484;2023-03-23T06:30:23;0.50;;;0.50;;
4186;SDS011;2107;52.306;10.484;2023-03-23T06:32:51;0.40;;;0.40;;
4186;SDS011;2107;52.306;10.484;2023-03-23T06:35:19;0.80;;;0.80;;
4186;SDS011;2107;52.306;10.484;2023-03-23T06:37:46;0.80;;;0.80;;
4186;SDS011;2107;52.306;10.484;2023-03-23T06:40:12;0.60;;;0.60;;
4186;SDS011;2107;52.306;10.484;2023-03-23T06:42:41;0.60;;;0.60;;
4186;SDS011;2107;52.306;10.484;2023-03-23T06:45:08;0.60;;;0.60;;
4186;SDS011;2107;52.306;10.484;2023-03-23T06:47:35;0.70;;;0.70;;
4186;SDS011;2107;52.306;10.484;2023-03-23T06:50:02;0.60;;;0.60;;
4186;SDS011;2107;52.306;10.484;2023-03-23T06:52:29;0.50;;;0.50;;
4186;SDS011;2107;52.306;10.484;2023-03-23T06:54:56;0.50;;;0.50;;
4186;SDS011;2107;52.306;10.484;2023-03-23T06:57:23;0.30;;;0.30;;
4186;SDS011;2107;52.306;10.484;2023-03-23T06:59:51;0.33;;;0.33;;
4186;SDS011;2107;52.306;10.484;2023-03-23T07:02:18;0.40;;;0.40;;
4186;SDS011;2107;52.306;10.484;2023-03-23T07:04:45;0.30;;;0.30;;
4186;SDS011;2107;52.306;10.484;2023-03-23T07:07:12;0.30;;;0.30;;
4186;SDS011;2107;52.306;10.484;2023-03-23T07:09:43;0.30;;;0.30;;
4186;SDS011;2107;52.306;10.484;2023-03-23T07:12:10;0.30;;;0.30;;
4186;SDS011;2107;52.306;10.484;2023-03-23T07:14:37;0.30;;;0.30;;
4186;SDS011;2107;52.306;10.484;2023-03-23T07:17:05;0.30;;;0.30;;
4186;SDS011;2107;52.306;10.484;2023-03-23T07:19:32;0.40;;;0.40;;
4186;SDS011;2107;52.306;10.484;2023-03-23T07:22:01;0.40;;;0.40;;
4186;SDS011;2107;52.306;10.484;2023-03-23T07:24:30;0.50;;;0.50;;
4186;SDS011;2107;52.306;10.484;2023-03-23T07:26:56;0.40;;;0.40;;
4186;SDS011;2107;52.306;10.484;2023-03-23T07:29:23;0.50;;;0.50;;
4186;SDS011;2107;52.306;10.484;2023-03-23T07:31:50;0.60;;;0.60;;
4186;SDS011;2107;52.306;10.484;2023-03-23T07:34:19;0.40;;;0.40;;
4186;SDS011;2107;52.306;10.484;2023-03-23T07:36:46;0.50;;;0.50;;
4186;SDS011;2107;52.306;10.484;2023-03-23T07:39:13;0.43;;;0.43;;
4186;SDS011;2107;52.306;10.484;2023-03-23T07:41:40;0.50;;;0.50;;
4186;SDS011;2107;52.306;10.484;2023-03-23T07:44:07;0.40;;;0.40;;
4186;SDS011;2107;52.306;10.484;2023-03-23T07:46:34;0.50;;;0.50;;
4186;SDS011;2107;52.306;10.484;2023-03-23T07:49:01;0.40;;;0.40;;
4186;SDS011;2107;52.306;10.484;2023-03-23T07:51:31;0.40;;;0.40;;
4186;SDS011;2107;52.306;10.484;2023-03-23T07:53:59;0.70;;;0.70;;
4186;SDS011;2107;52.306;10.484;2023-03-23T07:56:28;0.60;;;0.60;;
4186;SDS011;2107;52.306;10.484;2023-03-23T07:58:55;0.60;;;0.60;;
4186;SDS011;2107;52.306;10.484;2023-03-23T08:01:21;0.60;;;0.60;;
4186;SDS011;2107;52.306;10.484;2023-03-23T08:03:49;0.60;;;0.60;;
4186;SDS011;2107;52.306;10.484;2023-03-23T08:06:16;0.60;;;0.60;;
4186;SDS011;2107;52.306;10.484;2023-03-23T08:08:44;0.60;;;0.60;;
4186;SDS011;2107;52.306;10.484;2023-03-23T08:11:11;0.70;;;0.70;;
4186;SDS011;2107;52.306;10.484;2023-03-23T08:13:40;0.60;;;0.60;;
4186;SDS011;2107;52.306;10.484;2023-03-23T08:16:07;0.83;;;0.83;;
4186;SDS011;2107;52.306;10.484;2023-03-23T08:18:34;0.80;;;0.80;;
4186;SDS011;2107;52.306;10.484;2023-03-23T08:21:02;0.80;;;0.80;;
4186;SDS011;2107;52.306;10.484;2023-03-23T08:23:29;0.80;;;0.80;;
4186;SDS011;2107;52.306;10.484;2023-03-23T08:25:59;0.70;;;0.70;;
4186;SDS011;2107;52.306;10.484;2023-03-23T08:28:25;0.90;;;0.90;;
4186;SDS011;2107;52.306;10.484;2023-03-23T08:30:53;0.70;;;0.70;;
4186;SDS011;2107;52.306;10.484;2023-03-23T08:33:20;0.80;;;0.80;;
4186;SDS011;2107;52.306;10.484;2023-03-23T08:35:53;0.50;;;0.50;;
4186;SDS011;2107;52.306;10.484;2023-03-23T08:38:21;0.40;;;0.40;;
4186;SDS011;2107;52.306;10.484;2023-03-23T08:40:48;0.50;;;0.50;;
4186;SDS011;2107;52.306;10.484;2023-03-23T08:43:17;0.50;;;0.50;;
4186;SDS011;2107;52.306;10.484;2023-03-23T08:45:44;0.53;;;0.53;;
4186;SDS011;2107;52.306;10.484;2023-03-23T08:48:11;0.60;;;0.60;;
4186;SDS011;2107;52.306;10.484;2023-03-23T08:50:38;0.60;;;0.60;;
4186;SDS011;2107;52.306;10.484;2023-03-23T08:53:06;0.60;;;0.60;;
4186;SDS011;2107;52.306;10.484;2023-03-23T08:55:32;0.50;;;0.50;;
4186;SDS011;2107;52.306;10.484;2023-03-23T08:57:59;0.60;;;0.60;;
4186;SDS011;2107;52.306;10.484;2023-03-23T09:00:28;0.50;;;0.50;;
4186;SDS011;2107;52.306;10.484;2023-03-23T09:02:55;0.60;;;0.60;;
4186;SDS011;2107;52.306;10.484;2023-03-23T09:05:23;0.60;;;0.60;;
4186;SDS011;2107;52.306;10.484;2023-03-23T09:07:52;0.60;;;0.60;;
4186;SDS011;2107;52.306;10.484;2023-03-23T09:10:21;0.60;;;0.60;;
4186;SDS011;2107;52.306;10.484;2023-03-23T09:12:49;0.70;;;0.70;;
4186;SDS011;2107;52.306;10.484;2023-03-23T09:15:18;0.60;;;0.60;;
4186;SDS011;2107;52.306;10.484;2023-03-23T09:17:47;0.40;;;0.40;;
4186;SDS011;2107;52.306;10.484;2023-03-23T09:20:16;0.80;;;0.80;;
4186;SDS011;2107;52.306;10.484;2023-03-23T09:22:46;0.70;;;0.70;;
4186;SDS011;2107;52.306;10.484;2023-03-23T09:25:15;0.60;;;0.60;;
4186;SDS011;2107;52.306;10.484;2023-03-23T09:27:44;0.70;;;0.70;;
4186;SDS011;2107;52.306;10.484;2023-03-23T09:30:14;0.90;;;0.90;;
4186;SDS011;2107;52.306;10.484;2023-03-23T09:32:41;0.90;;;0.90;;
4186;SDS011;2107;52.306;10.484;2023-03-23T09:35:10;0.80;;;0.80;;
4186;SDS011;2107;52.306;10.484;2023-03-23T09:37:37;0.90;;;0.90;;
4186;SDS011;2107;52.306;10.484;2023-03-23T09:40:06;0.70;;;0.70;;
4186;SDS011;2107;52.306;10.484;2023-03-23T09:42:53;0.70;;;0.70;;
4186;SDS011;2107;52.306;10.484;2023-03-23T09:45:31;1.00;;;1.00;;
4186;SDS011;2107;52.306;10.484;2023-03-23T09:48:17;1.00;;;1.00;;
4186;SDS011;2107;52.306;10.484;2023-03-23T09:50:55;0.80;;;0.80;;
4186;SDS011;2107;52.306;10.484;2023-03-23T09:53:26;1.10;;;1.10;;
4186;SDS011;2107;52.306;10.484;2023-03-23T09:56:00;0.80;;;0.80;;
4186;SDS011;2107;52.306;10.484;2023-03-23T09:58:29;1.10;;;1.10;;
4186;SDS011;2107;52.306;10.484;2023-03-23T10:01:02;1.20;;;1.20;;
4186;SDS011;2107;52.306;10.484;2023-03-23T10:03:34;1.20;;;1.20;;
4186;SDS011;2107;52.306;10.484;2023-03-23T10:06:08;1.40;;;1.40;;
4186;SDS011;2107;52.306;10.484;2023-03-23T10:08:38;0.90;;;0.90;;
4186;SDS011;2107;52.306;10.484;2023-03-23T10:11:10;0.60;;;0.60;;
4186;SDS011;2107;52.306;10.484;2023-03-23T10:13:47;0.60;;;0.60;;
4186;SDS011;2107;52.306;10.484;2023-03-23T10:16:36;0.90;;;0.90;;
4186;SDS011;2107;52.306;10.484;2023-03-23T10:19:08;0.70;;;0.70;;
4186;SDS011;2107;52.306;10.484;2023-03-23T10:21:40;0.80;;;0.80;;
4186;SDS011;2107;52.306;10.484;2023-03-23T10:24:16;0.50;;;0.50;;
4186;SDS011;2107;52.306;10.484;2023-03-23T10:26:52;0.30;;;0.30;;
4186;SDS011;2107;52.306;10.484;2023-03-23T10:29:26;0.43;;;0.43;;
4186;SDS011;2107;52.306;10.484;2023-03-23T10:31:58;0.53;;;0.53;;
4186;SDS011;2107;52.306;10.484;2023-03-23T10:34:28;0.60;;;0.60;;
4186;SDS011;2107;52.306;10.484;2023-03-23T10:37:04;0.47;;;0.47;;
4186;SDS011;2107;52.306;10.484;2023-03-23T10:39:38;0.70;;;0.70;;
4186;SDS011;2107;52.306;10.484;2023-03-23T10:42:11;0.50;;;0.50;;
4186;SDS011;2107;52.306;10.484;2023-03-23T10:44:47;0.50;;;0.50;;
4186;SDS011;2107;52.306;10.484;2023-03-23T10:47:17;0.50;;;0.50;;
4186;SDS011;2107;52.306;10.484;2023-03-23T10:49:45;0.60;;;0.60;;
4186;SDS011;2107;52.306;10.484;2023-03-23T10:52:22;0.70;;;0.70;;
4186;SDS011;2107;52.306;10.484;2023-03-23T10:54:54;0.73;;;0.73;;
4186;SDS011;2107;52.306;10.484;2023-03-23T10:57:23;0.87;;;0.87;;
4186;SDS011;2107;52.306;10.484;2023-03-23T10:59:57;0.60;;;0.60;;
4186;SDS011;2107;52.306;10.484;2023-03-23T11:02:26;0.50;;;0.50;;
4186;SDS011;2107;52.306;10.484;2023-03-23T11:04:54;0.60;;;0.60;;
4186;SDS011;2107;52.306;10.484;2023-03-23T11:07:28;0.50;;;0.50;;
4186;SDS011;2107;52.306;10.484;2023-03-23T11:09:59;0.50;;;0.50;;
4186;SDS011;2107;52.306;10.484;2023-03-23T11:12:34;0.40;;;0.40;;
4186;SDS011;2107;52.306;10.484;2023-03-23T11:15:15;0.60;;;0.60;;
4186;SDS011;2107;52.306;10.484;2023-03-23T11:17:54;0.80;;;0.80;;
4186;SDS011;2107;52.306;10.484;2023-03-23T11:20:23;0.80;;;0.80;;
4186;SDS011;2107;52.306;10.484;2023-03-23T11:22:52;0.80;;;0.80;;
4186;SDS011;2107;52.306;10.484;2023-03-23T11:25:20;0.60;;;0.60;;
4186;SDS011;2107;52.306;10.484;2023-03-23T11:27:47;0.70;;;0.70;;
4186;SDS011;2107;52.306;10.484;2023-03-23T11:30:19;0.73;;;0.73;;
4186;SDS011;2107;52.306;10.484;2023-03-23T11:32:49;0.93;;;0.93;;
4186;SDS011;2107;52.306;10.484;2023-03-23T11:35:18;1.20;;;1.20;;
4186;SDS011;2107;52.306;10.484;2023-03-23T11:37:48;1.17;;;1.17;;
4186;SDS011;2107;52.306;10.484;2023-03-23T11:40:19;1.00;;;1.00;;
4186;SDS011;2107;52.306;10.484;2023-03-23T11:42:48;0.93;;;0.93;;
4186;SDS011;2107;52.306;10.484;2023-03-23T11:45:19;1.10;;;1.10;;
4186;SDS011;2107;52.306;10.484;2023-03-23T11:47:59;1.00;;;1.00;;
4186;SDS011;2107;52.306;10.484;2023-03-23T11:50:35;1.10;;;1.10;;
4186;SDS011;2107;52.306;10.484;2023-03-23T11:53:08;1.20;;;1.20;;
4186;SDS011;2107;52.306;10.484;2023-03-23T11:55:51;0.90;;;0.90;;
4186;SDS011;2107;52.306;10.484;2023-03-23T11:58:24;1.00;;;1.00;;
4186;SDS011;2107;52.306;10.484;2023-03-23T12:00:58;1.00;;;1.00;;
4186;SDS011;2107;52.306;10.484;2023-03-23T12:03:35;1.00;;;1.00;;
4186;SDS011;2107;52.306;10.484;2023-03-23T12:06:15;0.90;;;0.90;;
4186;SDS011;2107;52.306;10.484;2023-03-23T12:08:54;0.90;;;0.90;;
4186;SDS011;2107;52.306;10.484;2023-03-23T12:11:35;1.10;;;1.10;;
4186;SDS011;2107;52.306;10.484;2023-03-23T12:14:19;1.10;;;1.10;;
4186;SDS011;2107;52.306;10.484;2023-03-23T12:16:58;1.00;;;1.00;;
4186;SDS011;2107;52.306;10.484;2023-03-23T12:19:44;0.90;;;0.90;;
4186;SDS011;2107;52.306;10.484;2023-03-23T12:22:21;1.10;;;1.10;;
4186;SDS011;2107;52.306;10.484;2023-03-23T12:25:01;1.10;;;1.10;;
4186;SDS011;2107;52.306;10.484;2023-03-23T12:27:42;0.77;;;0.77;;
4186;SDS011;2107;52.306;10.484;2023-03-23T12:30:20;0.80;;;0.80;;
4186;SDS011;2107;52.306;10.484;2023-03-23T12:33:01;0.90;;;0.90;;
4186;SDS011;2107;52.306;10.484;2023-03-23T12:35:39;0.80;;;0.80;;
4186;SDS011;2107;52.306;10.484;2023-03-23T12:38:25;0.90;;;0.90;;
4186;SDS011;2107;52.306;10.484;2023-03-23T12:41:02;1.10;;;1.10;;
4186;SDS011;2107;52.306;10.484;2023-03-23T12:43:42;0.90;;;0.90;;
4186;SDS011;2107;52.306;10.484;2023-03-23T12:46:22;0.90;;;0.90;;
4186;SDS011;2107;52.306;10.484;2023-03-23T12:49:05;1.20;;;1.20;;
4186;SDS011;2107;52.306;10.484;2023-03-23T12:51:37;1.40;;;1.40;;
4186;SDS011;2107;52.306;10.484;2023-03-23T12:54:09;1.40;;;1.40;;
4186;SDS011;2107;52.306;10.484;2023-03-23T12:56:44;1.40;;;1.40;;
4186;SDS011;2107;52.306;10.484;2023-03-23T12:59:19;1.70;;;1.70;;
4186;SDS011;2107;52.306;10.484;2023-03-23T13:01:58;1.40;;;1.40;;
4186;SDS011;2107;52.306;10.484;2023-03-23T13:04:35;1.73;;;1.73;;
4186;SDS011;2107;52.306;10.484;2023-03-23T13:07:22;1.70;;;1.70;;
4186;SDS011;2107;52.306;10.484;2023-03-23T13:09:55;1.70;;;1.70;;
4186;SDS011;2107;52.306;10.484;2023-03-23T13:12:29;1.33;;;1.33;;
4186;SDS011;2107;52.306;10.484;2023-03-23T13:15:00;1.13;;;1.13;;
4186;SDS011;2107;52.306;10.484;2023-03-23T13:17:35;1.40;;;1.40;;
4186;SDS011;2107;52.306;10.484;2023-03-23T13:20:20;1.50;;;1.50;;
4186;SDS011;2107;52.306;10.484;2023-03-23T13:23:05;1.60;;;1.60;;
4186;SDS011;2107;52.306;10.484;2023-03-23T13:25:52;1.70;;;1.70;;
4186;SDS011;2107;52.306;10.484;2023-03-23T13:28:23;1.60;;;1.60;;
4186;SDS011;2107;52.306;10.484;2023-03-23T13:30:55;1.37;;;1.37;;
4186;SDS011;2107;52.306;10.484;2023-03-23T13:33:24;1.20;;;1.20;;
4186;SDS011;2107;52.306;10.484;2023-03-23T13:35:51;1.40;;;1.40;;
4186;SDS011;2107;52.306;10.484;2023-03-23T13:38:19;1.20;;;1.20;;
4186;SDS011;2107;52.306;10.484;2023-03-23T13:40:49;1.30;;;1.30;;
4186;SDS011;2107;52.306;10.484;2023-03-23T13:43:25;1.20;;;1.20;;
4186;SDS011;2107;52.306;10.484;2023-03-23T13:45:53;1.03;;;1.03;;
4186;SDS011;2107;52.306;10.484;2023-03-23T13:48:23;0.80;;;0.80;;
4186;SDS011;2107;52.306;10.484;2023-03-23T13:50:53;0.80;;;0.80;;
4186;SDS011;2107;52.306;10.484;2023-03-23T13:53:23;0.77;;;0.77;;
4186;SDS011;2107;52.306;10.484;2023-03-23T13:56:05;1.10;;;1.10;;
4186;SDS011;2107;52.306;10.484;2023-03-23T13:58:43;1.20;;;1.20;;
4186;SDS011;2107;52.306;10.484;2023-03-23T14:01:13;1.10;;;1.10;;
4186;SDS011;2107;52.306;10.484;2023-03-23T14:03:45;0.90;;;0.90;;
4186;SDS011;2107;52.306;10.484;2023-03-23T14:06:15;1.10;;;1.10;;
4186;SDS011;2107;52.306;10.484;2023-03-23T14:08:45;1.20;;;1.20;;
4186;SDS011;2107;52.306;10.484;2023-03-23T14:11:16;1.30;;;1.30;;
4186;SDS011;2107;52.306;10.484;2023-03-23T14:13:47;1.00;;;1.00;;
4186;SDS011;2107;52.306;10.484;2023-03-23T14:16:24;1.10;;;1.10;;
4186;SDS011;2107;52.306;10.484;2023-03-23T14:18:58;1.20;;;1.20;;
4186;SDS011;2107;52.306;10.484;2023-03-23T14:21:31;1.30;;;1.30;;
4186;SDS011;2107;52.306;10.484;2023-03-23T14:24:05;1.23;;;1.23;;
4186;SDS011;2107;52.306;10.484;2023-03-23T14:26:36;0.90;;;0.90;;
4186;SDS011;2107;52.306;10.484;2023-03-23T14:29:04;1.23;;;1.23;;
4186;SDS011;2107;52.306;10.484;2023-03-23T14:31:32;1.00;;;1.00;;
4186;SDS011;2107;52.306;10.484;2023-03-23T14:34:03;1.00;;;1.00;;
4186;SDS011;2107;52.306;10.484;2023-03-23T14:36:36;1.00;;;1.00;;
4186;SDS011;2107;52.306;10.484;2023-03-23T14:39:04;1.10;;;1.10;;
4186;SDS011;2107;52.306;10.484;2023-03-23T14:41:34;0.80;;;0.80;;
4186;SDS011;2107;52.306;10.484;2023-03-23T14:44:02;1.10;;;1.10;;
4186;SDS011;2107;52.306;10.484;2023-03-23T14:46:34;1.80;;;1.80;;
4186;SDS011;2107;52.306;10.484;2023-03-23T14:49:04;1.77;;;1.77;;
4186;SDS011;2107;52.306;10.484;2023-03-23T14:51:32;1.60;;;1.60;;
4186;SDS011;2107;52.306;10.484;2023-03-23T14:53:59;1.80;;;1.80;;
4186;SDS011;2107;52.306;10.484;2023-03-23T14:56:31;1.97;;;1.97;;
4186;SDS011;2107;52.306;10.484;2023-03-23T14:59:02;1.40;;;1.40;;
4186;SDS011;2107;52.306;10.484;2023-03-23T15:01:33;1.90;;;1.90;;
4186;SDS011;2107;52.306;10.484;2023-03-23T15:04:04;1.10;;;1.10;;
4186;SDS011;2107;52.306;10.484;2023-03-23T15:06:35;1.10;;;1.10;;
4186;SDS011;2107;52.306;10.484;2023-03-23T15:09:06;0.90;;;0.90;;
4186;SDS011;2107;52.306;10.484;2023-03-23T15:11:38;1.30;;;1.30;;
4186;SDS011;2107;52.306;10.484;2023-03-23T15:14:08;1.20;;;1.20;;
4186;SDS011;2107;52.306;10.484;2023-03-23T15:16:44;1.40;;;1.40;;
4186;SDS011;2107;52.306;10.484;2023-03-23T15:19:15;1.23;;;1.23;;
4186;SDS011;2107;52.306;10.484;2023-03-23T15:21:48;1.10;;;1.10;;
4186;SDS011;2107;52.306;10.484;2023-03-23T15:24:21;1.20;;;1.20;;
4186;SDS011;2107;52.306;10.484;2023-03-23T15:29:51;1.20;;;1.20;;
4186;SDS011;2107;52.306;10.484;2023-03-23T15:32:22;1.00;;;1.00;;